Time;durP1;ratioP1;P1;durP2;ratioP2;P2;SDS_P1;SDS_P2;PMS_P1;PMS_P2;Temp;Humidity;BMP_temperature;BMP_pressure;BME280_temperature;BME280_humidity;BME280_pressure;Samples;Min_cycle;Max_cycle;Signal;HPM_P1;HPM_P2
2022/06/21 00:02:24;;;;;;;7.30;6.03;;;24.30;70.80;;;;;;1825552;78;21054;-74
2022/06/21 00:04:54;;;;;;;7.17;6.30;;;24.20;70.80;;;;;;1825450;79;21125;-74
2022/06/21 00:07:26;;;;;;;6.72;6.08;;;24.20;70.80;;;;;;1825412;77;21130;-74
2022/06/21 00:09:57;;;;;;;8.23;6.33;;;24.20;71.20;;;;;;1825528;78;21136;-73
2022/06/21 00:12:27;;;;;;;6.15;5.60;;;24.20;71.20;;;;;;1825393;78;21068;-73
2022/06/21 00:14:56;;;;;;;8.85;6.60;;;24.20;71.40;;;;;;1825439;79;21059;-73
2022/06/21 00:17:25;;;;;;;9.53;6.40;;;24.20;71.40;;;;;;1825539;78;21070;-73
2022/06/21 00:19:55;;;;;;;9.15;6.45;;;24.20;71.40;;;;;;1825506;77;21078;-73
2022/06/21 00:22:24;;;;;;;8.93;6.10;;;24.30;71.40;;;;;;1825462;78;21171;-74
2022/06/21 00:24:54;;;;;;;6.35;5.78;;;24.20;71.40;;;;;;1825484;77;21078;-74
2022/06/21 00:27:24;;;;;;;7.45;6.45;;;24.20;71.60;;;;;;1825490;79;21031;-73
2022/06/21 00:29:53;;;;;;;7.15;6.45;;;24.20;71.70;;;;;;1825496;78;21136;-73
2022/06/21 00:32:23;;;;;;;8.43;6.45;;;24.20;71.60;;;;;;1825447;77;21125;-73
2022/06/21 00:34:52;;;;;;;8.33;7.03;;;24.20;71.50;;;;;;1825364;77;21054;-73
2022/06/21 00:37:23;;;;;;;7.55;6.83;;;24.20;71.60;;;;;;1825497;77;21555;-73
2022/06/21 00:39:52;;;;;;;7.15;6.47;;;24.20;72.20;;;;;;1825463;77;21051;-73
2022/06/21 00:42:27;;;;;;;7.70;6.80;;;24.20;71.70;;;;;;1825542;77;21493;-73
2022/06/21 00:45:06;;;;;;;6.85;6.10;;;24.20;71.70;;;;;;1824106;77;21093;-73
2022/06/21 00:47:43;;;;;;;6.95;5.80;;;24.10;71.80;;;;;;1825362;77;21090;-73
2022/06/21 00:50:18;;;;;;;9.10;6.22;;;24.10;71.90;;;;;;1825448;78;21493;-73
2022/06/21 00:52:53;;;;;;;5.90;5.40;;;24.20;72.70;;;;;;1825434;78;21090;-73
2022/06/21 00:55:28;;;;;;;6.83;6.03;;;24.20;72.10;;;;;;1825496;77;21054;-73
2022/06/21 00:57:57;;;;;;;6.45;5.85;;;24.20;72.10;;;;;;1825388;77;21124;-73
2022/06/21 01:00:29;;;;;;;6.80;6.20;;;24.20;72.10;;;;;;1825377;77;21070;-73
2022/06/21 01:03:01;;;;;;;10.40;7.80;;;24.20;72.10;;;;;;1825518;77;21564;-73
2022/06/21 01:05:32;;;;;;;7.42;6.72;;;24.10;71.80;;;;;;1825535;77;21022;-73
2022/06/21 01:08:02;;;;;;;9.03;6.17;;;24.00;72.00;;;;;;1825515;77;21026;-73
2022/06/21 01:10:32;;;;;;;7.83;6.70;;;23.90;72.40;;;;;;1825329;77;21047;-73
2022/06/21 01:13:07;;;;;;;8.78;6.50;;;23.80;72.50;;;;;;1825436;79;21058;-73
2022/06/21 01:15:38;;;;;;;7.20;6.47;;;23.80;72.70;;;;;;1825290;77;21111;-73
2022/06/21 01:18:09;;;;;;;7.92;6.45;;;23.80;72.80;;;;;;1825542;77;21492;-73
2022/06/21 01:20:41;;;;;;;9.00;6.28;;;23.70;72.70;;;;;;1825482;77;21055;-73
2022/06/21 01:23:46;;;;;;;7.67;6.75;;;23.80;72.90;;;;;;1825517;77;21132;-73
2022/06/21 01:26:44;;;;;;;6.40;5.80;;;23.80;73.00;;;;;;1825740;78;21071;-73
2022/06/21 01:29:17;;;;;;;7.10;6.50;;;23.70;72.90;;;;;;1825561;78;21074;-74
2022/06/21 01:31:47;;;;;;;7.35;6.08;;;23.70;73.00;;;;;;1825475;77;21485;-73
2022/06/21 01:34:22;;;;;;;6.37;5.78;;;23.80;73.10;;;;;;1825582;79;21062;-73
2022/06/21 01:36:56;;;;;;;7.60;6.65;;;23.80;73.20;;;;;;1825705;77;21477;-73
2022/06/21 01:39:29;;;;;;;;;;;23.80;73.10;;;;;;1828197;77;21532;-74
2022/06/21 01:42:01;;;;;;;6.92;6.40;;;23.70;72.80;;;;;;1825381;77;20138;-73
2022/06/21 01:44:33;;;;;;;10.15;5.65;;;23.70;72.90;;;;;;1826647;77;21560;-73
2022/06/21 01:47:04;;;;;;;7.58;6.03;;;23.70;73.30;;;;;;1831247;77;21050;-73
2022/06/21 01:49:36;;;;;;;10.50;6.62;;;23.70;73.30;;;;;;1831296;77;21074;-74
2022/06/21 01:52:17;;;;;;;7.90;6.40;;;23.60;73.40;;;;;;1831309;77;21649;-74
2022/06/21 01:54:49;;;;;;;10.50;6.10;;;23.60;73.40;;;;;;1831122;78;21148;-74
2022/06/21 01:57:18;;;;;;;10.88;6.85;;;23.60;73.60;;;;;;1831284;77;21077;-73
2022/06/21 01:59:50;;;;;;;9.53;6.60;;;23.60;73.80;;;;;;1831359;77;21054;-74
2022/06/21 02:02:22;;;;;;;7.20;6.55;;;23.70;73.80;;;;;;1831391;78;21055;-73
2022/06/21 02:04:57;;;;;;;8.15;6.50;;;23.70;73.80;;;;;;1831328;77;21049;-73
2022/06/21 02:07:29;;;;;;;7.35;5.90;;;23.70;73.90;;;;;;1831335;78;21489;-74
2022/06/21 02:10:10;;;;;;;7.22;6.53;;;23.70;73.80;;;;;;1831278;77;21073;-73
2022/06/21 02:12:48;;;;;;;7.50;6.80;;;23.70;73.90;;;;;;1830868;77;21582;-73
2022/06/21 02:15:41;;;;;;;7.17;6.55;;;23.70;73.70;;;;;;1830774;77;21042;-73
2022/06/21 02:18:13;;;;;;;10.80;6.60;;;23.70;73.70;;;;;;1827445;77;21042;-73
2022/06/21 02:20:48;;;;;;;6.90;6.20;;;23.70;73.60;;;;;;1831281;77;21072;-74
2022/06/21 02:23:22;;;;;;;8.00;6.75;;;23.80;73.70;;;;;;1831272;78;21022;-73
2022/06/21 02:25:52;;;;;;;7.47;6.78;;;23.70;73.60;;;;;;1831298;78;21155;-73
2022/06/21 02:28:22;;;;;;;12.35;6.78;;;23.70;73.60;;;;;;1831378;77;21069;-73
2022/06/21 02:30:53;;;;;;;8.10;6.50;;;23.60;73.60;;;;;;1831261;77;21065;-73
2022/06/21 02:33:28;;;;;;;8.73;6.53;;;23.60;73.80;;;;;;1831270;77;21112;-74
2022/06/21 02:36:00;;;;;;;14.60;7.08;;;23.60;73.90;;;;;;1831198;77;21050;-74
2022/06/21 02:38:35;;;;;;;25.43;8.93;;;23.60;73.80;;;;;;1831044;78;21026;-73
2022/06/21 02:41:07;;;;;;;;;;;23.60;73.90;;;;;;1834101;77;21745;-74
2022/06/21 02:43:39;;;;;;;7.42;6.28;;;23.70;73.80;;;;;;1831245;78;20139;-74
2022/06/21 02:46:18;;;;;;;8.33;6.22;;;23.70;73.50;;;;;;1830352;77;21086;-74
2022/06/21 02:48:56;;;;;;;10.63;7.05;;;23.80;73.40;;;;;;1829980;78;21073;-74
2022/06/21 02:51:28;;;;;;;8.38;6.15;;;23.90;73.20;;;;;;1831379;78;21175;-74
2022/06/21 02:54:18;;;;;;;17.02;8.03;;;24.00;72.90;;;;;;1831362;78;21508;-74
2022/06/21 02:56:50;;;;;;;8.15;7.08;;;24.00;72.70;;;;;;1831199;77;21079;-74
2022/06/21 02:59:40;;;;;;;12.95;6.92;;;24.10;72.80;;;;;;1831049;77;21062;-74
2022/06/21 03:02:11;;;;;;;10.50;7.05;;;24.20;72.70;;;;;;1772488;81;21083;-74
2022/06/21 03:04:53;;;;;;;8.48;7.55;;;24.20;72.60;;;;;;1772175;81;21643;-74
2022/06/21 03:07:24;;;;;;;9.38;7.53;;;24.20;72.60;;;;;;1772428;80;21071;-73
2022/06/21 03:09:55;;;;;;;7.22;6.53;;;24.20;72.20;;;;;;1772494;80;21039;-73
2022/06/21 03:12:27;;;;;;;9.53;6.85;;;24.30;72.00;;;;;;1772495;80;21142;-73
2022/06/21 03:14:59;;;;;;;8.48;7.10;;;24.30;71.80;;;;;;1772530;81;21077;-73
2022/06/21 03:17:34;;;;;;;8.48;6.70;;;24.40;71.40;;;;;;1772391;81;21063;-73
2022/06/21 03:20:03;;;;;;;12.68;6.78;;;24.40;70.90;;;;;;1772320;79;21605;-73
2022/06/21 03:22:35;;;;;;;8.20;6.70;;;24.40;70.90;;;;;;1772378;80;21043;-73
2022/06/21 03:25:06;;;;;;;8.23;6.40;;;24.40;70.90;;;;;;1772441;80;21502;-73
2022/06/21 03:27:38;;;;;;;15.95;7.12;;;24.40;70.10;;;;;;1772414;80;21052;-73
2022/06/21 03:30:08;;;;;;;8.58;6.62;;;24.50;70.50;;;;;;1772303;80;21059;-73
2022/06/21 03:32:38;;;;;;;10.35;6.87;;;24.50;70.60;;;;;;1772403;80;21067;-73
2022/06/21 03:35:08;;;;;;;10.08;6.58;;;24.60;70.50;;;;;;1772349;81;21106;-74
2022/06/21 03:37:39;;;;;;;8.73;6.15;;;24.70;70.20;;;;;;1772352;81;21074;-73
2022/06/21 03:43:00;;;;;;;8.75;6.37;;;24.80;69.40;;;;;;1772571;81;21075;-73
2022/06/21 03:45:32;;;;;;;9.40;7.00;;;24.80;69.30;;;;;;1771929;80;21083;-73
2022/06/21 03:48:13;;;;;;;8.33;6.35;;;24.90;69.00;;;;;;1772215;80;21150;-73
2022/06/21 03:51:04;;;;;;;7.53;6.78;;;24.90;69.00;;;;;;1772357;80;21126;-73
2022/06/21 03:53:35;;;;;;;15.45;7.05;;;25.00;69.10;;;;;;1772430;79;21086;-73
2022/06/21 03:56:35;;;;;;;13.28;6.95;;;25.10;68.90;;;;;;1771857;80;21604;-73
2022/06/21 03:59:37;;;;;;;10.58;7.17;;;25.10;69.00;;;;;;1742212;81;21094;-73
2022/06/21 04:02:25;;;;;;;9.98;6.50;;;25.20;68.70;;;;;;1765964;79;21510;-71
2022/06/21 04:05:09;;;;;;;9.23;6.75;;;25.20;68.40;;;;;;1764467;81;21120;-72
2022/06/21 04:07:57;;;;;;;8.05;7.12;;;25.20;68.50;;;;;;1764593;81;21168;-72
2022/06/21 04:10:31;;;;;;;13.98;9.20;;;25.30;68.30;;;;;;1762673;80;21125;-72
2022/06/21 04:13:26;;;;;;;15.43;8.95;;;25.30;68.00;;;;;;1764423;80;21094;-72
2022/06/21 04:16:01;;;;;;;9.03;7.42;;;25.30;67.80;;;;;;1764550;79;21063;-72
2022/06/21 04:18:42;;;;;;;12.23;7.53;;;25.30;68.00;;;;;;1764365;80;21126;-72
2022/06/21 04:21:17;;;;;;;9.00;6.83;;;25.30;68.00;;;;;;1764683;81;21197;-72
2022/06/21 04:23:49;;;;;;;9.78;8.03;;;25.40;68.10;;;;;;1764691;80;21080;-73
2022/06/21 04:26:30;;;;;;;10.30;6.87;;;25.40;68.10;;;;;;1764590;80;21118;-73
2022/06/21 04:29:05;;;;;;;13.05;7.70;;;25.50;67.90;;;;;;1764567;81;21145;-73
2022/06/21 04:31:39;;;;;;;14.13;8.20;;;25.50;67.80;;;;;;1764641;80;21063;-72
2022/06/21 04:34:24;;;;;;;17.50;7.62;;;25.70;67.60;;;;;;1764190;79;21526;-72
2022/06/21 04:37:11;;;;;;;8.25;6.17;;;25.70;67.40;;;;;;1764722;80;21092;-72
2022/06/21 04:39:52;;;;;;;6.17;5.58;;;25.80;67.10;;;;;;1764711;80;21059;-73
2022/06/21 04:42:33;;;;;;;10.13;5.83;;;25.90;67.00;;;;;;1760450;81;21118;-72
2022/06/21 04:45:22;;;;;;;9.50;5.70;;;26.00;66.50;;;;;;1763080;79;21040;-72
2022/06/21 04:48:00;;;;;;;10.90;5.87;;;26.00;66.00;;;;;;1764601;80;21090;-72
2022/06/21 04:50:47;;;;;;;11.93;5.60;;;26.10;65.90;;;;;;1763903;79;21091;-72
2022/06/21 04:53:25;;;;;;;6.37;5.53;;;26.20;65.80;;;;;;1764577;80;21175;-72
2022/06/21 04:56:12;;;;;;;7.28;5.90;;;26.30;65.50;;;;;;1764742;79;21162;-73
2022/06/21 04:58:43;;;;;;;7.72;5.50;;;26.30;64.60;;;;;;1731365;81;21553;-73
2022/06/21 05:01:32;;;;;;;6.35;5.33;;;26.40;64.60;;;;;;1766266;79;21250;-73
2022/06/21 05:04:33;;;;;;;9.08;5.30;;;26.40;64.50;;;;;;1772329;80;21091;-73
2022/06/21 05:07:14;;;;;;;5.83;5.22;;;26.40;64.50;;;;;;1772226;81;21501;-73
2022/06/21 05:09:44;;;;;;;10.13;5.72;;;26.40;64.80;;;;;;1772393;81;21055;-74
2022/06/21 05:12:19;;;;;;;8.18;5.97;;;26.40;64.50;;;;;;1772215;80;21098;-73
2022/06/21 05:14:50;;;;;;;13.10;5.95;;;26.50;64.40;;;;;;1771800;80;21446;-74
2022/06/21 05:17:21;;;;;;;11.95;5.85;;;26.50;64.40;;;;;;1772293;80;21118;-74
2022/06/21 05:19:52;;;;;;;8.93;5.75;;;26.50;64.70;;;;;;1772288;80;21137;-75
2022/06/21 05:22:30;;;;;;;7.95;5.67;;;26.60;64.60;;;;;;1772411;80;21118;-74
2022/06/21 05:25:00;;;;;;;7.03;5.40;;;26.70;64.20;;;;;;1772281;80;21110;-74
2022/06/21 05:27:50;;;;;;;8.80;5.60;;;26.70;63.70;;;;;;1772374;81;21137;-74
2022/06/21 05:30:25;;;;;;;12.33;5.47;;;26.80;63.60;;;;;;1772469;80;21602;-75
2022/06/21 05:32:54;;;;;;;;;;;26.90;63.50;;;;;;1767405;79;21063;-75
2022/06/21 05:35:27;;;;;;;10.95;5.80;;;27.00;62.20;;;;;;1772368;80;20120;-75
2022/06/21 05:38:13;;;;;;;5.12;4.60;;;27.10;63.20;;;;;;1772362;81;21137;-75
2022/06/21 05:40:57;;;;;;;8.88;5.22;;;27.20;63.00;;;;;;1772348;80;21521;-75
2022/06/21 05:43:39;;;;;;;6.92;4.85;;;27.40;61.90;;;;;;1772449;80;21028;-75
2022/06/21 05:46:13;;;;;;;12.35;5.12;;;27.40;61.10;;;;;;1772235;80;21145;-76
2022/06/21 05:48:44;;;;;;;6.65;6.03;;;27.50;60.90;;;;;;1772272;79;21035;-77
2022/06/21 05:51:19;;;;;;;5.28;4.78;;;27.50;60.50;;;;;;1772360;81;21121;-75
2022/06/21 05:53:51;;;;;;;13.75;5.35;;;27.60;59.80;;;;;;1772431;80;21145;-76
2022/06/21 05:56:23;;;;;;;6.42;4.00;;;27.60;60.10;;;;;;1772467;81;21561;-76
2022/06/21 05:59:03;;;;;;;5.15;4.25;;;27.70;59.40;;;;;;1772559;80;21115;-76
2022/06/21 06:01:35;;;;;;;6.28;4.65;;;27.80;59.10;;;;;;1771324;79;21303;-76
2022/06/21 06:04:26;;;;;;;6.78;4.50;;;27.90;58.70;;;;;;1764031;81;21091;-76
2022/06/21 06:06:58;;;;;;;12.35;7.08;;;28.00;58.70;;;;;;1763816;79;21099;-76
2022/06/21 06:09:34;;;;;;;13.25;6.70;;;28.10;58.00;;;;;;1764546;81;21063;-76
2022/06/21 06:12:14;;;;;;;10.10;5.17;;;28.20;57.50;;;;;;1764634;80;21092;-76
2022/06/21 06:14:46;;;;;;;5.53;3.85;;;28.30;57.00;;;;;;1764461;80;21096;-76
2022/06/21 06:17:33;;;;;;;5.47;4.30;;;28.30;56.30;;;;;;1764414;80;21190;-76
2022/06/21 06:20:17;;;;;;;7.62;4.42;;;28.40;56.30;;;;;;1764514;79;21206;-76
2022/06/21 06:23:01;;;;;;;5.00;4.10;;;28.50;55.50;;;;;;1764798;80;21056;-76
2022/06/21 06:25:39;;;;;;;7.22;3.80;;;28.60;55.20;;;;;;1749024;80;21060;-75
2022/06/21 06:28:23;;;;;;;5.42;4.67;;;28.60;54.10;;;;;;1764454;80;21108;-76
2022/06/21 06:31:04;;;;;;;8.18;4.12;;;28.70;53.90;;;;;;1760756;81;21076;-76
2022/06/21 06:33:36;;;;;;;5.35;3.80;;;28.70;53.80;;;;;;1762825;79;21137;-76
2022/06/21 06:36:09;;;;;;;6.95;4.33;;;28.80;52.60;;;;;;1764570;81;21087;-76
2022/06/21 06:38:39;;;;;;;11.48;4.50;;;28.90;53.10;;;;;;1764543;81;21142;-76
2022/06/21 06:41:17;;;;;;;8.75;4.05;;;29.00;52.20;;;;;;1764399;81;21031;-76
2022/06/21 06:43:52;;;;;;;7.03;4.20;;;29.10;52.30;;;;;;1764450;80;21083;-76
2022/06/21 06:46:24;;;;;;;8.70;4.53;;;29.10;52.30;;;;;;1764681;79;21561;-76
2022/06/21 06:48:55;;;;;;;6.05;4.37;;;29.10;52.50;;;;;;1764543;80;21087;-76
2022/06/21 06:51:45;;;;;;;4.65;4.00;;;29.20;52.20;;;;;;1764257;79;21087;-78
2022/06/21 06:54:19;;;;;;;10.15;4.85;;;29.30;52.30;;;;;;1764492;80;21542;-77
2022/06/21 06:59:44;;;;;;;12.30;4.35;;;29.50;51.60;;;;;;1865486;76;21124;-76
2022/06/21 07:02:19;;;;;;;7.30;4.15;;;29.60;52.00;;;;;;1865676;76;21058;-76
2022/06/21 07:04:51;;;;;;;7.10;4.62;;;29.80;51.80;;;;;;1865593;76;21105;-77
2022/06/21 07:07:26;;;;;;;9.28;3.55;;;29.80;50.90;;;;;;1865598;76;21063;-77
2022/06/21 07:09:58;;;;;;;5.62;3.52;;;29.80;50.20;;;;;;1865480;74;21112;-77
2022/06/21 07:12:30;;;;;;;4.45;3.87;;;29.90;49.70;;;;;;1865567;75;21050;-77
2022/06/21 07:14:59;;;;;;;7.97;3.95;;;29.90;50.00;;;;;;1865702;76;21026;-77
2022/06/21 07:17:43;;;;;;;5.78;3.60;;;29.90;49.60;;;;;;1865554;76;21090;-77
2022/06/21 07:20:17;;;;;;;4.60;3.62;;;29.80;49.40;;;;;;1865797;75;21050;-77
2022/06/21 07:22:47;;;;;;;4.10;3.70;;;29.70;50.00;;;;;;1865650;77;21125;-77
2022/06/21 07:25:31;;;;;;;7.17;4.30;;;29.80;49.90;;;;;;1865685;76;21042;-77
2022/06/21 07:28:35;;;;;;;6.23;3.67;;;29.80;50.00;;;;;;1865690;76;21485;-77
2022/06/21 07:31:08;;;;;;;6.05;3.92;;;29.80;49.60;;;;;;1771930;81;21349;-77
2022/06/21 07:33:43;;;;;;;7.78;4.28;;;29.90;49.70;;;;;;1804147;78;21081;-77
2022/06/21 07:36:18;;;;;;;5.47;4.05;;;29.90;50.00;;;;;;1758111;79;21532;-77
2022/06/21 07:38:58;;;;;;;7.08;3.80;;;29.90;49.40;;;;;;1796182;79;21152;-78
2022/06/21 07:41:30;;;;;;;8.60;4.33;;;30.00;49.60;;;;;;1796096;80;21547;-77
2022/06/21 07:44:01;;;;;;;6.53;3.58;;;30.10;49.30;;;;;;1795964;79;21512;-77
2022/06/21 07:46:45;;;;;;;5.70;4.03;;;30.10;49.50;;;;;;1795733;80;21567;-77
2022/06/21 07:49:18;;;;;;;6.37;3.77;;;30.20;49.40;;;;;;1796159;79;21058;-77
2022/06/21 07:51:50;;;;;;;4.47;3.95;;;30.20;49.20;;;;;;1795430;79;21062;-77
2022/06/21 07:54:21;;;;;;;6.28;3.72;;;30.30;49.30;;;;;;1793898;79;21590;-77
2022/06/21 07:56:53;;;;;;;6.33;3.77;;;30.30;48.70;;;;;;1793698;79;21085;-77
2022/06/21 07:59:25;;;;;;;8.45;4.20;;;30.30;49.00;;;;;;1793578;79;21469;-77
2022/06/21 08:07:47;;;;;;;8.13;4.05;;;30.40;49.10;;;;;;1795861;79;21073;-77
2022/06/21 08:10:34;;;;;;;3.87;3.55;;;30.40;49.30;;;;;;1795953;80;21159;-76
2022/06/21 08:13:05;;;;;;;9.45;4.20;;;30.50;49.40;;;;;;1787248;79;21066;-77
2022/06/21 08:15:46;;;;;;;8.78;3.98;;;30.50;49.50;;;;;;1795863;79;21058;-77
2022/06/21 08:18:26;;;;;;;6.35;4.78;;;30.60;49.40;;;;;;1697096;80;21067;-75
2022/06/21 08:21:01;;;;;;;7.22;4.08;;;30.70;49.60;;;;;;1795717;79;21094;-77
2022/06/21 08:23:43;;;;;;;10.23;3.87;;;30.80;49.70;;;;;;1795878;80;21081;-77
2022/06/21 08:26:24;;;;;;;6.83;4.40;;;30.90;49.20;;;;;;1791853;80;21598;-77
2022/06/21 08:28:56;;;;;;;9.35;4.00;;;30.90;49.00;;;;;;1795817;78;21086;-76
2022/06/21 08:31:38;;;;;;;10.80;4.22;;;31.00;49.30;;;;;;1795280;79;21090;-76
2022/06/21 08:34:16;;;;;;;11.30;4.67;;;31.10;49.20;;;;;;1795886;80;21116;-67
2022/06/21 08:36:47;;;;;;;13.50;4.97;;;31.10;48.90;;;;;;1794982;79;21207;-70
2022/06/21 08:39:43;;;;;;;5.80;4.05;;;31.20;48.70;;;;;;1794588;79;21058;-68
2022/06/21 08:42:39;;;;;;;15.80;4.15;;;31.30;48.50;;;;;;1760836;80;21051;-68
2022/06/21 08:45:43;;;;;;;12.53;4.53;;;31.30;49.30;;;;;;1800710;78;21061;-70
2022/06/21 08:48:24;;;;;;;5.72;3.98;;;31.40;48.70;;;;;;1726334;82;21175;-66
2022/06/21 08:50:59;;;;;;;6.17;3.65;;;31.50;48.10;;;;;;1793032;80;21129;-69
2022/06/21 08:53:45;;;;;;;4.00;3.52;;;31.50;48.30;;;;;;1800333;79;21108;-68
2022/06/21 08:56:20;;;;;;;5.30;4.03;;;31.70;48.50;;;;;;1800735;80;21484;-74
2022/06/21 08:59:09;;;;;;;7.17;3.70;;;31.70;48.40;;;;;;1791684;79;21156;-67
2022/06/21 09:01:41;;;;;;;7.42;3.75;;;31.80;48.20;;;;;;1800745;80;21140;-67
2022/06/21 09:04:22;;;;;;;6.60;3.83;;;31.80;48.00;;;;;;1800959;79;21465;-61
2022/06/21 09:07:31;;;;;;;6.22;4.20;;;31.90;48.00;;;;;;1800619;79;21125;-67
2022/06/21 09:10:15;;;;;;;5.08;3.92;;;32.10;47.60;;;;;;1800865;78;21129;-71
2022/06/21 09:13:03;;;;;;;12.50;4.92;;;32.20;47.70;;;;;;1800799;79;21147;-70
2022/06/21 09:15:56;;;;;;;7.95;3.65;;;32.30;47.70;;;;;;1800727;80;21077;-65
2022/06/21 09:18:47;;;;;;;5.33;3.62;;;32.30;47.50;;;;;;1800797;78;21141;-73
2022/06/21 09:21:25;;;;;;;5.95;3.60;;;32.30;47.00;;;;;;1800547;78;21060;-67
2022/06/21 09:24:01;;;;;;;5.85;3.60;;;32.30;47.00;;;;;;1800874;79;21136;-69
2022/06/21 09:26:36;;;;;;;7.30;3.50;;;32.30;46.50;;;;;;1800816;78;21148;-66
2022/06/21 09:29:26;;;;;;;9.03;4.67;;;32.30;46.30;;;;;;1800389;79;21077;-63
2022/06/21 09:32:25;;;;;;;5.55;3.70;;;32.30;46.40;;;;;;1800838;80;21062;-63
2022/06/21 09:35:00;;;;;;;14.45;3.70;;;32.30;46.00;;;;;;1743981;81;21095;-67
2022/06/21 09:37:56;;;;;;;6.85;3.80;;;32.40;46.60;;;;;;1743796;81;21656;-68
2022/06/21 09:40:33;;;;;;;8.65;4.25;;;32.50;45.70;;;;;;1743622;81;21035;-67
2022/06/21 09:43:34;;;;;;;6.22;3.65;;;32.50;44.70;;;;;;1744205;81;21173;-67
2022/06/21 09:46:32;;;;;;;8.80;4.00;;;32.60;44.30;;;;;;1743620;81;21137;-66
2022/06/21 09:49:25;;;;;;;6.65;3.37;;;32.60;44.40;;;;;;1743893;82;21130;-66
2022/06/21 09:52:12;;;;;;;6.62;3.70;;;32.70;44.50;;;;;;1743779;81;21635;-65
2022/06/21 09:54:49;;;;;;;6.78;3.42;;;32.70;43.50;;;;;;1743705;82;21192;-77
2022/06/21 09:57:38;;;;;;;7.33;3.30;;;32.70;43.60;;;;;;1740569;81;21162;-68
2022/06/21 10:00:12;;;;;;;5.25;3.45;;;32.70;43.30;;;;;;1743676;82;21083;-70
2022/06/21 10:03:02;;;;;;;7.85;4.22;;;32.70;43.30;;;;;;1744033;82;21083;-70
2022/06/21 10:05:40;;;;;;;6.17;3.70;;;32.70;43.30;;;;;;1743030;81;21786;-74
2022/06/21 10:08:37;;;;;;;7.62;3.98;;;32.70;43.40;;;;;;1743655;81;21055;-69
2022/06/21 10:11:21;;;;;;;6.58;3.70;;;32.70;42.50;;;;;;1743916;81;21098;-72
2022/06/21 10:13:53;;;;;;;9.13;3.92;;;32.60;42.40;;;;;;1743832;81;21051;-70
2022/06/21 10:16:54;;;;;;;4.15;3.20;;;32.50;42.30;;;;;;1743024;81;21087;-66
2022/06/21 10:19:44;;;;;;;5.62;3.50;;;32.40;42.40;;;;;;1744075;81;21063;-67
2022/06/21 10:22:33;;;;;;;8.00;3.72;;;32.40;43.10;;;;;;1743834;81;21062;-67
2022/06/21 10:25:09;;;;;;;8.18;3.37;;;32.40;42.90;;;;;;1744120;82;21073;-70
2022/06/21 10:27:49;;;;;;;5.92;4.45;;;32.60;42.40;;;;;;1743444;82;21114;-69
2022/06/21 10:30:39;;;;;;;7.75;3.90;;;32.60;42.60;;;;;;1744104;81;21114;-72
2022/06/21 10:33:31;;;;;;;6.33;3.27;;;32.70;42.70;;;;;;1749165;80;21154;-69
2022/06/21 10:36:07;;;;;;;6.08;3.12;;;32.80;42.50;;;;;;1770393;80;21142;-77
2022/06/21 10:38:44;;;;;;;7.22;3.25;;;32.80;42.60;;;;;;1770093;80;21664;-74
2022/06/21 10:41:39;;;;;;;9.00;3.50;;;32.90;42.40;;;;;;1769688;80;21538;-72
2022/06/21 10:44:20;;;;;;;6.53;2.95;;;32.90;41.90;;;;;;1758793;81;21139;-71
2022/06/21 10:46:51;;;;;;;4.15;3.47;;;32.90;41.40;;;;;;1769576;81;21064;-66
2022/06/21 10:49:50;;;;;;;7.55;3.77;;;32.90;41.80;;;;;;1770554;80;21471;-67
2022/06/21 10:52:25;;;;;;;7.10;3.37;;;32.90;41.90;;;;;;1759567;81;21131;-67
2022/06/21 10:54:59;;;;;;;6.03;3.10;;;33.00;41.10;;;;;;1769481;80;21672;-66
2022/06/21 10:57:55;;;;;;;5.20;2.95;;;33.10;40.80;;;;;;1770319;80;21112;-68
2022/06/21 11:03:53;;;;;;;7.20;3.20;;;33.10;39.80;;;;;;1687020;85;21077;-72
2022/06/21 11:06:37;;;;;;;29.27;24.35;;;33.10;39.90;;;;;;1762341;81;21024;-73
2022/06/21 11:09:34;;;;;;;12.33;3.15;;;33.20;40.40;;;;;;1772734;81;21607;-73
2022/06/21 11:15:16;;;;;;;5.58;2.80;;;33.30;39.40;;;;;;1772728;81;21505;-74
2022/06/21 11:18:11;;;;;;;4.35;2.52;;;33.40;39.00;;;;;;1772572;81;21154;-74
2022/06/21 11:20:57;;;;;;;5.87;2.80;;;33.30;38.20;;;;;;1772842;81;21059;-73
2022/06/21 11:23:41;;;;;;;6.17;2.40;;;33.30;38.70;;;;;;1772557;81;21138;-74
2022/06/21 11:26:29;;;;;;;6.00;2.67;;;33.30;38.80;;;;;;1771422;81;21142;-74
2022/06/21 11:29:24;;;;;;;7.80;3.35;;;33.40;38.60;;;;;;1772547;81;21067;-74
2022/06/21 11:31:59;;;;;;;5.80;2.80;;;33.40;38.40;;;;;;1772866;80;22301;-74
2022/06/21 11:34:58;;;;;;;6.50;3.30;;;33.40;38.10;;;;;;1772862;81;21067;-74
2022/06/21 11:37:49;;;;;;;5.22;2.40;;;33.40;38.20;;;;;;1772682;81;21067;-75
2022/06/21 11:40:46;;;;;;;5.20;2.90;;;33.40;38.50;;;;;;1755083;80;21138;-74
2022/06/21 11:43:27;;;;;;;11.83;2.77;;;33.40;38.40;;;;;;1772739;81;21254;-75
2022/06/21 11:45:59;;;;;;;4.17;2.50;;;33.40;38.80;;;;;;1770701;81;21150;-75
2022/06/21 11:48:46;;;;;;;7.95;2.87;;;33.50;38.70;;;;;;1772033;80;21107;-74
2022/06/21 11:51:45;;;;;;;5.92;2.95;;;33.50;38.70;;;;;;1772632;81;21123;-74
2022/06/21 11:54:20;;;;;;;5.92;2.70;;;33.50;38.90;;;;;;1771377;81;21141;-75
2022/06/21 11:57:18;;;;;;;6.08;2.70;;;33.50;38.30;;;;;;1745202;80;21562;-76
2022/06/21 11:59:52;;;;;;;5.78;3.15;;;33.50;38.10;;;;;;1772305;81;21603;-75
2022/06/21 12:02:41;;;;;;;8.23;3.80;;;33.50;38.70;;;;;;1772676;81;21138;-75
2022/06/21 12:05:24;;;;;;;5.08;3.40;;;33.40;40.00;;;;;;1771545;80;21100;-76
2022/06/21 12:08:08;;;;;;;8.43;3.80;;;33.40;41.40;;;;;;1770172;81;21138;-76
2022/06/21 12:10:52;;;;;;;11.28;4.17;;;33.40;42.20;;;;;;1760440;81;21192;-76
2022/06/21 12:13:44;;;;;;;4.58;3.33;;;33.40;42.50;;;;;;1769938;81;21585;-76
2022/06/21 12:16:31;;;;;;;8.40;3.62;;;33.40;42.20;;;;;;1769883;80;21071;-75
2022/06/21 12:19:05;;;;;;;4.65;2.85;;;33.50;42.40;;;;;;1769806;81;21103;-75
2022/06/21 12:21:58;;;;;;;9.40;3.47;;;33.50;40.10;;;;;;1769840;80;21166;-75
2022/06/21 12:24:30;;;;;;;6.33;3.37;;;33.60;40.00;;;;;;1787871;80;21073;-75
2022/06/21 12:26:59;;;;;;;9.10;3.60;;;33.60;40.20;;;;;;1787711;80;21127;-75
2022/06/21 12:29:28;;;;;;;6.80;3.62;;;33.70;39.80;;;;;;1787681;80;21053;-75
2022/06/21 12:32:00;;;;;;;7.37;3.50;;;33.60;39.50;;;;;;1787721;80;21068;-75
2022/06/21 12:34:34;;;;;;;7.53;3.40;;;33.50;39.30;;;;;;1787844;80;21723;-75
2022/06/21 12:37:06;;;;;;;5.45;3.40;;;33.50;39.40;;;;;;1787720;80;21058;-75
2022/06/21 12:39:41;;;;;;;5.65;3.20;;;33.50;39.60;;;;;;1787195;79;21226;-76
2022/06/21 12:42:34;;;;;;;6.12;3.75;;;33.50;39.60;;;;;;1787591;80;21085;-76
2022/06/21 12:45:23;;;;;;;8.10;4.90;;;33.50;39.80;;;;;;1787789;80;21120;-75
2022/06/21 12:48:28;;;;;;;5.72;3.75;;;33.50;39.80;;;;;;1787764;80;21057;-76
2022/06/21 12:51:12;;;;;;;11.18;4.67;;;33.40;39.60;;;;;;1787779;80;21089;-75
2022/06/21 12:54:06;;;;;;;8.25;4.20;;;33.40;39.70;;;;;;1787907;80;21527;-75
2022/06/21 12:57:05;;;;;;;7.08;3.75;;;33.40;39.90;;;;;;1787205;79;21500;-74
2022/06/21 12:59:52;;;;;;;7.50;3.40;;;33.30;39.90;;;;;;1787664;80;21139;-73
2022/06/21 13:02:27;;;;;;;8.78;4.75;;;33.30;39.90;;;;;;1787721;80;21061;-74
2022/06/21 13:05:20;;;;;;;5.25;3.58;;;33.30;40.20;;;;;;1787385;79;21633;-75
2022/06/21 13:08:17;;;;;;;6.30;3.22;;;33.30;40.20;;;;;;1787621;80;21139;-75
2022/06/21 13:11:08;;;;;;;6.95;3.33;;;33.20;39.70;;;;;;1787777;80;21190;-75
2022/06/21 13:13:46;;;;;;;4.05;3.17;;;33.20;39.80;;;;;;1757198;80;21314;-75
2022/06/21 13:16:42;;;;;;;6.37;4.00;;;33.10;39.50;;;;;;1786404;80;21056;-75
2022/06/21 13:19:29;;;;;;;6.72;3.60;;;33.10;39.80;;;;;;1787183;80;21135;-75
2022/06/21 13:22:08;;;;;;;15.50;4.10;;;33.10;39.50;;;;;;1787434;80;21101;-74
2022/06/21 13:24:42;;;;;;;8.55;3.85;;;33.10;39.80;;;;;;1762978;79;21123;-73
2022/06/21 13:27:37;;;;;;;7.37;4.37;;;33.10;39.80;;;;;;1760620;81;21516;-74
2022/06/21 13:30:22;;;;;;;6.42;3.60;;;33.20;39.90;;;;;;1760604;81;21061;-73
2022/06/21 13:32:53;;;;;;;6.47;3.83;;;33.30;40.50;;;;;;1760806;81;21064;-74
2022/06/21 13:35:34;;;;;;;7.87;3.55;;;33.40;40.50;;;;;;1761435;81;21136;-73
2022/06/21 13:38:07;;;;;;;7.47;3.17;;;33.40;40.20;;;;;;1759665;81;21081;-74
2022/06/21 13:40:57;;;;;;;16.30;7.70;;;33.50;39.90;;;;;;1761049;81;21137;-74
2022/06/21 13:43:32;;;;;;;23.02;8.28;;;33.50;41.80;;;;;;1759716;81;21582;-74
2022/06/21 13:46:07;;;;;;;11.70;4.80;;;33.40;44.10;;;;;;1761446;81;21107;-73
2022/06/21 13:48:43;;;;;;;7.55;4.30;;;33.40;45.80;;;;;;1761386;81;21160;-75
2022/06/21 13:51:21;;;;;;;18.67;4.87;;;33.30;47.00;;;;;;1761458;81;21085;-74
2022/06/21 13:53:56;;;;;;;5.25;4.08;;;33.20;48.20;;;;;;1761480;81;21167;-73
2022/06/21 13:56:52;;;;;;;7.58;4.40;;;33.10;49.60;;;;;;1761466;81;21065;-74
2022/06/21 13:59:29;;;;;;;13.55;4.37;;;32.90;51.10;;;;;;1756471;81;21101;-74
2022/06/21 14:02:01;;;;;;;10.75;4.62;;;32.80;52.40;;;;;;1761497;81;21127;-74
2022/06/21 14:05:02;;;;;;;8.98;4.62;;;32.70;53.00;;;;;;1761433;81;21590;-75
2022/06/21 14:07:42;;;;;;;13.30;4.97;;;32.60;53.80;;;;;;1761541;81;21061;-75